Time;durP1;ratioP1;P1;durP2;ratioP2;P2;SDS_P1;SDS_P2;PMS_P1;PMS_P2;Temp;Humidity;BMP_temperature;BMP_pressure;BME280_temperature;BME280_humidity;BME280_pressure;Samples;Min_cycle;Max_cycle;Signal;HPM_P1;HPM_P2
2024/01/19 00:00:19;;;;;;;22.42;5.45;;;6.90;98.30;;;;;;5087727;28;20035;-48
2024/01/19 00:02:45;;;;;;;17.08;5.25;;;6.90;98.20;;;;;;5087680;28;20419;-48
2024/01/19 00:05:11;;;;;;;21.30;4.95;;;6.80;98.20;;;;;;5069892;28;20036;-48
2024/01/19 00:07:36;;;;;;;27.25;4.80;;;6.80;98.20;;;;;;5069716;28;20025;-48
2024/01/19 00:10:02;;;;;;;20.88;5.45;;;6.80;98.20;;;;;;5087779;28;20051;-48
2024/01/19 00:12:28;;;;;;;29.38;5.63;;;6.80;98.20;;;;;;5069869;28;20024;-48
2024/01/19 00:14:53;;;;;;;17.60;4.93;;;6.80;98.30;;;;;;5069717;28;20021;-48
2024/01/19 00:17:19;;;;;;;26.95;5.68;;;6.80;98.30;;;;;;5052983;28;20496;-48
2024/01/19 00:19:44;;;;;;;23.67;5.22;;;6.70;98.30;;;;;;5069128;28;20040;-48
2024/01/19 00:22:10;;;;;;;19.20;5.30;;;6.70;98.30;;;;;;5087117;28;20048;-48
2024/01/19 00:24:35;;;;;;;19.90;5.53;;;6.70;98.30;;;;;;5087519;28;20036;-48
2024/01/19 00:27:02;;;;;;;30.63;5.25;;;6.70;98.40;;;;;;5087109;28;20040;-48
2024/01/19 00:29:28;;;;;;;20.50;5.10;;;6.70;98.40;;;;;;5069481;28;20028;-48
2024/01/19 00:31:54;;;;;;;26.83;5.22;;;6.70;98.40;;;;;;5087373;28;20064;-48
2024/01/19 00:34:20;;;;;;;28.00;5.88;;;6.60;98.40;;;;;;5069241;28;20024;-48
2024/01/19 00:36:45;;;;;;;27.73;5.25;;;6.60;98.40;;;;;;5052277;28;20041;-48
2024/01/19 00:39:11;;;;;;;21.63;5.13;;;6.60;98.50;;;;;;5086915;28;20066;-48
2024/01/19 00:41:37;;;;;;;22.48;4.57;;;6.60;98.50;;;;;;5068915;28;20032;-48
2024/01/19 00:44:02;;;;;;;27.63;5.95;;;6.60;98.60;;;;;;5086949;28;20036;-48
2024/01/19 00:46:28;;;;;;;17.05;5.47;;;6.50;98.50;;;;;;5068842;28;20093;-48
2024/01/19 00:48:54;;;;;;;18.70;4.80;;;6.50;98.50;;;;;;5069192;28;20021;-48
2024/01/19 00:51:20;;;;;;;18.92;6.28;;;6.50;98.50;;;;;;5069006;28;20058;-48
2024/01/19 00:53:45;;;;;;;25.40;6.07;;;6.50;98.60;;;;;;5053934;28;20024;-46
2024/01/19 00:56:11;;;;;;;19.10;4.82;;;6.50;98.60;;;;;;5070063;28;20033;-47
2024/01/19 00:58:40;;;;;;;28.45;5.75;;;6.50;98.60;;;;;;5053084;28;20081;-48
2024/01/19 01:01:06;;;;;;;18.17;4.88;;;6.50;98.70;;;;;;5086547;28;20036;-48
2024/01/19 01:03:31;;;;;;;21.00;4.50;;;6.50;98.70;;;;;;5068749;28;20069;-48
2024/01/19 01:05:58;;;;;;;20.17;4.82;;;6.40;98.70;;;;;;5052058;28;20036;-48
2024/01/19 01:08:25;;;;;;;21.75;5.35;;;6.40;98.80;;;;;;5052268;28;20099;-48
2024/01/19 01:10:50;;;;;;;15.63;4.80;;;6.40;98.70;;;;;;5068574;28;20029;-48
2024/01/19 01:13:17;;;;;;;18.75;5.05;;;6.40;98.70;;;;;;5068741;28;20044;-48
2024/01/19 01:15:42;;;;;;;14.23;4.63;;;6.40;98.80;;;;;;5086250;28;20037;-48
2024/01/19 01:18:08;;;;;;;22.83;4.68;;;6.40;99.10;;;;;;5086412;28;20046;-48
2024/01/19 01:20:33;;;;;;;14.73;4.55;;;6.40;98.80;;;;;;5086274;28;20048;-48
2024/01/19 01:22:59;;;;;;;17.13;4.43;;;6.40;98.70;;;;;;5086610;28;20038;-48
2024/01/19 01:25:25;;;;;;;20.73;4.85;;;6.40;98.80;;;;;;5086360;28;20033;-48
2024/01/19 01:27:50;;;;;;;22.00;5.00;;;6.40;98.70;;;;;;5051829;28;20044;-48
2024/01/19 01:30:16;;;;;;;19.00;4.25;;;6.40;98.70;;;;;;5068433;28;20036;-48
2024/01/19 01:32:41;;;;;;;13.10;4.20;;;6.40;98.60;;;;;;5051482;28;20032;-48
2024/01/19 01:35:07;;;;;;;17.20;4.38;;;6.40;98.60;;;;;;5068219;28;20023;-48
2024/01/19 01:37:33;;;;;;;13.02;4.68;;;6.30;98.60;;;;;;5068766;28;20078;-48
2024/01/19 01:39:58;;;;;;;21.40;4.93;;;6.30;98.60;;;;;;5086234;28;20103;-48
2024/01/19 01:42:24;;;;;;;20.23;5.25;;;6.30;98.70;;;;;;5051600;28;20040;-48
2024/01/19 01:44:49;;;;;;;14.57;4.43;;;6.30;98.70;;;;;;5068141;28;20029;-48
2024/01/19 01:47:15;;;;;;;12.60;4.35;;;6.30;98.80;;;;;;5086341;28;20124;-48
2024/01/19 01:49:41;;;;;;;13.57;3.83;;;6.30;98.80;;;;;;5068210;28;20473;-48
2024/01/19 01:52:07;;;;;;;12.40;3.90;;;6.20;98.70;;;;;;5035044;28;20047;-48
2024/01/19 01:54:32;;;;;;;15.05;4.90;;;6.20;98.60;;;;;;5068322;28;20025;-48
2024/01/19 01:56:58;;;;;;;19.85;4.22;;;6.20;98.70;;;;;;5051577;28;20032;-48
2024/01/19 01:59:23;;;;;;;12.80;4.13;;;6.20;98.70;;;;;;5068156;28;20025;-48
2024/01/19 02:01:49;;;;;;;16.33;4.05;;;6.20;98.70;;;;;;5068169;28;20495;-48
2024/01/19 02:04:15;;;;;;;17.60;4.45;;;6.20;98.80;;;;;;5051390;28;20027;-48
2024/01/19 02:06:41;;;;;;;14.27;4.45;;;6.20;98.90;;;;;;5051326;28;20630;-48
2024/01/19 02:09:07;;;;;;;10.98;3.90;;;6.20;98.80;;;;;;5068197;28;20024;-48
2024/01/19 02:11:32;;;;;;;9.95;4.28;;;6.20;98.80;;;;;;5051211;28;20036;-48
2024/01/19 02:13:58;;;;;;;13.50;3.97;;;6.20;98.90;;;;;;5051162;28;20070;-48
2024/01/19 02:16:24;;;;;;;10.23;3.85;;;6.10;98.80;;;;;;5086677;28;20419;-48
2024/01/19 02:18:49;;;;;;;11.70;4.20;;;6.20;98.90;;;;;;5051086;28;20024;-48
2024/01/19 02:21:15;;;;;;;10.98;3.90;;;6.10;98.80;;;;;;5086489;28;20036;-48
2024/01/19 02:23:48;;;;;;;17.83;4.60;;;6.10;98.80;;;;;;5051508;28;20078;-48
2024/01/19 02:26:13;;;;;;;15.48;4.65;;;6.10;98.90;;;;;;5051741;28;20338;-48
2024/01/19 02:28:39;;;;;;;15.18;4.32;;;6.10;98.90;;;;;;5068120;28;20031;-48
2024/01/19 02:31:05;;;;;;;9.80;3.70;;;6.10;98.90;;;;;;5067775;28;20044;-48
2024/01/19 02:33:30;;;;;;;11.98;4.60;;;6.10;98.90;;;;;;5085649;28;20484;-48
2024/01/19 02:35:56;;;;;;;10.88;3.95;;;6.10;98.90;;;;;;5085464;28;20033;-48
2024/01/19 02:38:21;;;;;;;9.32;3.80;;;6.10;99.00;;;;;;5067592;28;20055;-46
2024/01/19 02:40:47;;;;;;;11.82;3.80;;;6.10;98.90;;;;;;5085596;28;20036;-48
2024/01/19 02:43:12;;;;;;;9.52;3.90;;;6.10;99.00;;;;;;5085742;28;20032;-48
2024/01/19 02:45:38;;;;;;;9.98;3.95;;;6.00;99.00;;;;;;5071845;28;20033;-48
2024/01/19 02:48:04;;;;;;;13.63;3.72;;;6.10;99.00;;;;;;5089394;28;20095;-48
2024/01/19 02:50:29;;;;;;;14.57;4.15;;;6.00;99.00;;;;;;5071422;28;20033;-48
2024/01/19 02:52:55;;;;;;;10.05;3.75;;;6.00;99.00;;;;;;5071076;28;20028;-48
2024/01/19 02:55:21;;;;;;;16.33;4.50;;;6.00;99.10;;;;;;5071367;28;20052;-48
2024/01/19 02:57:46;;;;;;;8.65;3.92;;;6.00;99.00;;;;;;5070923;28;20116;-49
2024/01/19 03:00:12;;;;;;;11.48;4.53;;;6.00;99.00;;;;;;5054310;28;20024;-48
2024/01/19 03:02:38;;;;;;;9.55;3.83;;;6.00;99.00;;;;;;5088630;28;20066;-48
2024/01/19 03:05:04;;;;;;;13.00;4.50;;;6.00;99.00;;;;;;5070988;28;20034;-48
2024/01/19 03:07:29;;;;;;;7.60;3.83;;;6.00;99.00;;;;;;5089064;28;20020;-48
2024/01/19 03:09:55;;;;;;;13.27;3.53;;;6.00;99.00;;;;;;5070971;28;20048;-48
2024/01/19 03:12:21;;;;;;;7.43;3.97;;;5.90;99.00;;;;;;5088802;28;20158;-48
2024/01/19 03:14:46;;;;;;;9.10;3.83;;;5.90;99.00;;;;;;5053979;28;20029;-48
2024/01/19 03:17:13;;;;;;;10.80;4.15;;;5.90;99.00;;;;;;5088661;28;20028;-48
2024/01/19 03:19:39;;;;;;;11.15;3.88;;;5.90;99.30;;;;;;5070721;28;20047;-47
2024/01/19 03:22:04;;;;;;;7.85;3.97;;;5.90;99.00;;;;;;5088649;28;20033;-48
2024/01/19 03:24:30;;;;;;;9.68;3.70;;;5.90;99.00;;;;;;5070673;28;20063;-48
2024/01/19 03:26:55;;;;;;;7.95;3.58;;;5.90;99.00;;;;;;5070419;28;20071;-48
2024/01/19 03:29:22;;;;;;;7.30;3.28;;;5.90;99.00;;;;;;5070496;28;20043;-48
2024/01/19 03:31:48;;;;;;;10.35;4.30;;;5.80;99.00;;;;;;5088395;28;20472;-48
2024/01/19 03:34:14;;;;;;;12.43;3.90;;;5.80;99.00;;;;;;5088560;28;20076;-48
2024/01/19 03:36:39;;;;;;;13.65;4.35;;;5.90;99.10;;;;;;5070046;28;20090;-48
2024/01/19 03:39:06;;;;;;;9.50;3.97;;;5.80;99.00;;;;;;5088207;28;20381;-48
2024/01/19 03:41:31;;;;;;;7.00;3.42;;;5.80;99.10;;;;;;5088332;28;20098;-48
2024/01/19 03:43:57;;;;;;;8.93;3.80;;;5.80;99.00;;;;;;5088145;28;20465;-48
2024/01/19 03:46:22;;;;;;;9.30;4.07;;;5.80;99.00;;;;;;5088240;28;20032;-48
2024/01/19 03:48:48;;;;;;;8.27;4.10;;;5.80;99.00;;;;;;5053452;28;20036;-48
2024/01/19 03:51:14;;;;;;;8.75;4.03;;;5.80;99.10;;;;;;5088079;28;20037;-48
2024/01/19 03:53:43;;;;;;;6.50;4.15;;;5.80;99.10;;;;;;5070134;28;20049;-48
2024/01/19 03:56:09;;;;;;;9.70;4.10;;;5.80;99.00;;;;;;5053389;28;20033;-48
2024/01/19 03:58:34;;;;;;;8.10;3.97;;;5.70;99.00;;;;;;5087874;28;20029;-48
2024/01/19 04:01:00;;;;;;;8.60;4.22;;;5.70;99.10;;;;;;5087739;28;20040;-48
2024/01/19 04:03:26;;;;;;;9.40;3.97;;;5.80;99.10;;;;;;5070099;28;20028;-48
2024/01/19 04:05:51;;;;;;;9.07;4.20;;;5.70;99.10;;;;;;5087842;28;20020;-48
2024/01/19 04:08:17;;;;;;;7.22;4.05;;;5.70;99.00;;;;;;5069540;28;20115;-48
2024/01/19 04:10:42;;;;;;;6.43;3.75;;;5.70;99.10;;;;;;5087682;28;20028;-48
2024/01/19 04:13:08;;;;;;;5.60;3.67;;;5.70;99.10;;;;;;5069562;28;20050;-48
2024/01/19 04:15:34;;;;;;;9.70;4.13;;;5.70;99.00;;;;;;5069502;28;20048;-48
2024/01/19 04:17:59;;;;;;;8.98;4.15;;;5.70;99.00;;;;;;5087292;28;20078;-48
2024/01/19 04:20:25;;;;;;;7.90;3.67;;;5.70;99.10;;;;;;5069543;28;20111;-48
2024/01/19 04:22:50;;;;;;;6.60;3.65;;;5.70;99.10;;;;;;5087534;28;20020;-48
2024/01/19 04:25:16;;;;;;;7.05;3.70;;;5.70;99.00;;;;;;5087219;28;20046;-48
2024/01/19 04:27:41;;;;;;;7.75;3.22;;;5.70;99.10;;;;;;5069232;28;20031;-48
2024/01/19 04:30:07;;;;;;;8.20;4.15;;;5.70;99.10;;;;;;5069612;28;20036;-48
2024/01/19 04:32:33;;;;;;;5.43;3.20;;;5.60;99.00;;;;;;5087700;28;20020;-48
2024/01/19 04:34:59;;;;;;;10.68;3.80;;;5.70;99.10;;;;;;5087613;28;20020;-48
2024/01/19 04:37:24;;;;;;;5.75;3.55;;;5.60;99.00;;;;;;5086769;28;20051;-48
2024/01/19 04:39:50;;;;;;;6.40;3.60;;;5.60;98.90;;;;;;5052678;28;20032;-48
2024/01/19 04:42:15;;;;;;;8.93;3.67;;;5.60;99.00;;;;;;5069049;28;20032;-48
2024/01/19 04:44:41;;;;;;;5.70;3.88;;;5.60;99.10;;;;;;5052478;28;20013;-48
2024/01/19 04:47:07;;;;;;;4.57;3.70;;;5.60;99.00;;;;;;5087138;28;20032;-48
2024/01/19 04:49:32;;;;;;;9.07;4.10;;;5.60;99.00;;;;;;5035752;28;20400;-48
2024/01/19 04:51:58;;;;;;;6.03;3.30;;;5.50;98.90;;;;;;5052331;28;20496;-48
2024/01/19 04:54:23;;;;;;;6.65;3.58;;;5.50;98.90;;;;;;5052147;28;20074;-48
2024/01/19 04:56:49;;;;;;;5.68;3.60;;;5.50;98.80;;;;;;5086692;28;20032;-48
2024/01/19 04:59:15;;;;;;;5.70;3.53;;;5.50;98.90;;;;;;5068562;28;20016;-48
2024/01/19 05:01:40;;;;;;;6.10;3.88;;;5.50;98.90;;;;;;5086795;28;20021;-48
2024/01/19 05:04:06;;;;;;;5.10;3.50;;;5.50;98.90;;;;;;5086665;28;20416;-48
2024/01/19 05:06:31;;;;;;;6.68;3.92;;;5.50;98.70;;;;;;5086250;28;20063;-48
2024/01/19 05:08:57;;;;;;;5.95;3.40;;;5.50;98.70;;;;;;5052101;28;20074;-48
2024/01/19 05:11:22;;;;;;;9.93;4.00;;;5.50;98.80;;;;;;5086666;28;20032;-48
2024/01/19 05:13:48;;;;;;;7.07;3.40;;;5.50;98.90;;;;;;5052259;28;20123;-48
2024/01/19 05:16:14;;;;;;;5.40;3.55;;;5.50;98.90;;;;;;5068559;28;20054;-48
2024/01/19 05:18:40;;;;;;;7.53;3.58;;;5.50;98.90;;;;;;5086429;28;20046;-48
2024/01/19 05:21:06;;;;;;;6.20;3.55;;;5.40;98.80;;;;;;5086583;28;20111;-48
2024/01/19 05:23:31;;;;;;;10.52;3.63;;;5.50;98.60;;;;;;5068605;28;20040;-48
2024/01/19 05:25:57;;;;;;;6.40;3.15;;;5.40;98.40;;;;;;5051673;28;20492;-48
2024/01/19 05:28:23;;;;;;;7.38;3.70;;;5.50;98.30;;;;;;5051503;28;20115;-48
2024/01/19 05:30:48;;;;;;;9.57;3.58;;;5.40;98.10;;;;;;5086167;28;20372;-48
2024/01/19 05:33:14;;;;;;;9.32;4.00;;;5.40;98.00;;;;;;5051585;28;20107;-48
2024/01/19 05:35:40;;;;;;;6.47;2.92;;;5.40;98.00;;;;;;5085957;28;20037;-49
2024/01/19 05:38:06;;;;;;;7.38;3.38;;;5.40;97.90;;;;;;5073606;28;20498;-48
2024/01/19 05:40:31;;;;;;;14.18;3.80;;;5.40;97.90;;;;;;5080806;28;20040;-49
2024/01/19 05:42:57;;;;;;;9.40;3.83;;;5.40;97.90;;;;;;5084729;28;20017;-48
2024/01/19 05:45:23;;;;;;;5.65;3.25;;;5.40;97.80;;;;;;5084959;28;20044;-49
2024/01/19 05:47:48;;;;;;;8.93;3.90;;;5.40;97.70;;;;;;5085159;28;20024;-48
2024/01/19 05:50:14;;;;;;;11.05;3.50;;;5.40;97.70;;;;;;5084748;28;20038;-48
2024/01/19 05:52:40;;;;;;;10.40;4.10;;;5.40;97.70;;;;;;5051766;28;20063;-48
2024/01/19 05:55:06;;;;;;;10.18;3.97;;;5.40;97.60;;;;;;5085951;28;20385;-48
2024/01/19 05:57:31;;;;;;;11.27;4.28;;;5.40;97.40;;;;;;5067777;28;20027;-48
2024/01/19 05:59:57;;;;;;;11.68;3.50;;;5.40;97.40;;;;;;5085328;28;20020;-48
2024/01/19 06:02:22;;;;;;;10.90;3.47;;;5.40;97.40;;;;;;5085917;28;20050;-48
2024/01/19 06:04:48;;;;;;;23.65;4.30;;;5.40;97.50;;;;;;5083885;28;20432;-48
2024/01/19 06:07:14;;;;;;;16.17;4.55;;;5.30;97.60;;;;;;5085005;28;20553;-48
2024/01/19 06:09:39;;;;;;;11.52;4.07;;;5.30;97.70;;;;;;5084509;28;20052;-48
2024/01/19 06:12:05;;;;;;;19.73;4.20;;;5.30;97.50;;;;;;5084459;28;20039;-48
2024/01/19 06:14:31;;;;;;;14.75;4.47;;;5.30;97.60;;;;;;5084755;28;20039;-49
2024/01/19 06:16:56;;;;;;;21.08;5.43;;;5.30;97.60;;;;;;5084469;28;20037;-48
2024/01/19 06:19:22;;;;;;;19.35;4.97;;;5.30;97.60;;;;;;5086999;28;20142;-48
2024/01/19 06:21:48;;;;;;;11.40;4.25;;;5.30;97.50;;;;;;5088174;28;20400;-49
2024/01/19 06:24:15;;;;;;;19.13;5.22;;;5.30;97.40;;;;;;5088198;28;20080;-49
2024/01/19 06:26:44;;;;;;;12.50;4.82;;;5.30;97.40;;;;;;5088157;28;20032;-49
2024/01/19 06:29:10;;;;;;;15.00;4.38;;;5.30;97.40;;;;;;5088638;28;20049;-48
2024/01/19 06:31:42;;;;;;;28.23;5.20;;;5.30;97.50;;;;;;5088512;28;20048;-48
2024/01/19 06:34:08;;;;;;;24.38;5.90;;;5.30;97.50;;;;;;5071561;28;20070;-48
2024/01/19 06:36:34;;;;;;;17.85;4.75;;;5.30;97.60;;;;;;5089040;28;20037;-47
2024/01/19 06:38:59;;;;;;;23.13;4.85;;;5.30;97.50;;;;;;5089406;28;20433;-48
2024/01/19 06:41:25;;;;;;;27.88;5.10;;;5.30;97.30;;;;;;5089383;28;20032;-48
2024/01/19 06:43:51;;;;;;;42.85;6.43;;;5.30;97.20;;;;;;5089250;28;20020;-48
2024/01/19 06:46:16;;;;;;;31.05;5.78;;;5.20;97.30;;;;;;5087860;28;20036;-48
2024/01/19 06:48:42;;;;;;;25.45;5.95;;;5.30;97.50;;;;;;5087918;28;20461;-48
2024/01/19 06:51:07;;;;;;;34.10;6.68;;;5.30;97.80;;;;;;5087680;28;20037;-48
2024/01/19 06:53:33;;;;;;;43.63;6.53;;;5.30;97.60;;;;;;5088965;28;20030;-48
2024/01/19 06:55:59;;;;;;;44.08;7.45;;;5.30;97.50;;;;;;5087422;28;20048;-49
2024/01/19 06:58:24;;;;;;;38.63;6.57;;;5.30;97.50;;;;;;5088881;28;20043;-48
2024/01/19 07:00:50;;;;;;;27.00;5.88;;;5.30;97.40;;;;;;5088899;28;20033;-48
2024/01/19 07:03:15;;;;;;;22.75;5.40;;;5.20;97.20;;;;;;5087122;28;20495;-49
2024/01/19 07:05:42;;;;;;;32.58;6.65;;;5.20;97.10;;;;;;5050646;28;20125;-48
2024/01/19 07:08:08;;;;;;;22.40;5.95;;;5.20;97.00;;;;;;5066631;28;20072;-48
2024/01/19 07:10:33;;;;;;;33.15;6.72;;;5.20;96.90;;;;;;5066681;28;20473;-49
2024/01/19 07:12:59;;;;;;;24.10;6.63;;;5.20;97.00;;;;;;5065726;28;20056;-48
2024/01/19 07:15:24;;;;;;;23.58;6.90;;;5.20;97.00;;;;;;5088357;28;20048;-48
2024/01/19 07:17:50;;;;;;;30.40;5.72;;;5.20;97.00;;;;;;5088507;28;20103;-48
2024/01/19 07:20:16;;;;;;;23.55;5.90;;;5.20;96.90;;;;;;5084147;28;20040;-48
2024/01/19 07:22:41;;;;;;;37.22;6.70;;;5.20;96.90;;;;;;5079023;28;20044;-48
2024/01/19 07:25:07;;;;;;;30.25;6.97;;;5.10;96.90;;;;;;5066092;28;20031;-48
2024/01/19 07:27:32;;;;;;;34.30;6.60;;;5.10;96.80;;;;;;5082615;28;20036;-49
2024/01/19 07:29:58;;;;;;;22.63;6.97;;;5.10;96.80;;;;;;5074676;28;20036;-48
2024/01/19 07:32:25;;;;;;;29.25;6.78;;;5.10;96.80;;;;;;5063328;28;20032;-48
2024/01/19 07:34:51;;;;;;;22.30;5.45;;;5.10;97.10;;;;;;5051075;28;20048;-48
2024/01/19 07:37:16;;;;;;;30.15;7.95;;;5.10;96.90;;;;;;5062878;28;20024;-49
2024/01/19 07:39:42;;;;;;;35.58;7.38;;;5.10;97.10;;;;;;5079630;28;20025;-49
2024/01/19 07:42:07;;;;;;;24.92;8.27;;;5.10;97.40;;;;;;5080232;28;20282;-49
2024/01/19 07:44:33;;;;;;;40.10;7.03;;;5.10;97.30;;;;;;5081410;28;20084;-49
2024/01/19 07:46:59;;;;;;;38.55;6.80;;;5.10;97.20;;;;;;5080354;28;20033;-60
2024/01/19 07:49:24;;;;;;;57.38;11.07;;;5.10;97.10;;;;;;5074199;28;20025;-61
2024/01/19 07:51:50;;;;;;;73.35;11.38;;;5.10;97.10;;;;;;5062113;28;20052;-60
2024/01/19 07:54:20;;;;;;;50.47;10.10;;;5.10;97.00;;;;;;5047449;28;20443;-61
2024/01/19 07:56:46;;;;;;;65.30;11.23;;;5.10;97.10;;;;;;5084025;28;20104;-60
2024/01/19 07:59:12;;;;;;;53.50;8.80;;;5.20;97.20;;;;;;5079422;28;20092;-60
2024/01/19 08:01:38;;;;;;;59.33;9.52;;;5.10;97.10;;;;;;5062606;28;20021;-60
2024/01/19 08:04:04;;;;;;;50.13;8.55;;;5.10;97.10;;;;;;5090078;28;20021;-61
2024/01/19 08:06:30;;;;;;;48.35;9.25;;;5.10;97.10;;;;;;5078836;28;20573;-49
2024/01/19 08:08:56;;;;;;;51.25;10.57;;;5.10;97.10;;;;;;5080064;28;20093;-49
2024/01/19 08:11:21;;;;;;;41.47;8.30;;;5.20;97.10;;;;;;5084637;28;20033;-46
2024/01/19 08:13:47;;;;;;;59.67;8.70;;;5.20;97.10;;;;;;5067724;28;20031;-48
2024/01/19 08:16:13;;;;;;;98.80;12.75;;;5.20;97.00;;;;;;5080358;28;20025;-51
2024/01/19 08:18:38;;;;;;;76.57;12.30;;;5.20;97.20;;;;;;5045724;28;20384;-51
2024/01/19 08:21:04;;;;;;;70.70;9.98;;;5.20;97.60;;;;;;5084927;28;20321;-51
2024/01/19 08:23:30;;;;;;;61.30;11.00;;;5.20;97.70;;;;;;5052094;28;20021;-51
2024/01/19 08:25:56;;;;;;;63.42;9.05;;;5.20;97.80;;;;;;5083325;28;20036;-48
2024/01/19 08:28:22;;;;;;;54.58;8.80;;;5.20;97.70;;;;;;5082624;28;20400;-49
2024/01/19 08:30:48;;;;;;;67.47;10.38;;;5.20;97.30;;;;;;5078178;28;20020;-49
2024/01/19 08:33:13;;;;;;;62.15;10.52;;;5.20;97.20;;;;;;5054928;28;20365;-49
2024/01/19 08:35:39;;;;;;;53.85;10.02;;;5.20;97.20;;;;;;5082477;28;20432;-48
2024/01/19 08:38:05;;;;;;;65.40;10.10;;;5.20;97.50;;;;;;5078948;28;20561;-48
2024/01/19 08:40:30;;;;;;;67.35;10.90;;;5.30;97.30;;;;;;5081422;28;20028;-48
2024/01/19 08:42:56;;;;;;;107.28;14.52;;;5.30;97.40;;;;;;5089775;28;20352;-48
2024/01/19 08:45:22;;;;;;;75.18;13.02;;;5.30;97.50;;;;;;5064463;28;20086;-49
2024/01/19 08:47:49;;;;;;;75.05;10.77;;;5.30;97.60;;;;;;5057717;28;20051;-49
2024/01/19 08:50:15;;;;;;;131.23;15.82;;;5.30;97.80;;;;;;5076799;28;20426;-49
2024/01/19 08:52:40;;;;;;;113.50;13.88;;;5.30;97.60;;;;;;5076275;28;20088;-51
2024/01/19 08:55:06;;;;;;;110.60;14.45;;;5.30;97.50;;;;;;5061492;28;20024;-51
2024/01/19 08:57:32;;;;;;;98.40;12.48;;;5.30;97.70;;;;;;5077506;28;20030;-63
2024/01/19 08:59:57;;;;;;;115.65;14.55;;;5.40;97.90;;;;;;5062924;28;20025;-63
2024/01/19 09:02:23;;;;;;;123.43;15.68;;;5.40;98.00;;;;;;5085492;28;20029;-63
2024/01/19 09:04:49;;;;;;;81.00;12.60;;;5.40;98.00;;;;;;5071432;28;20032;-63
2024/01/19 09:07:15;;;;;;;95.63;14.13;;;5.40;97.80;;;;;;5049875;28;20528;-63
2024/01/19 09:09:41;;;;;;;72.82;12.45;;;5.40;97.70;;;;;;5061320;28;20035;-60
2024/01/19 09:12:07;;;;;;;75.80;13.52;;;5.40;97.70;;;;;;5067818;28;20066;-60
2024/01/19 09:14:32;;;;;;;107.40;13.57;;;5.40;97.80;;;;;;5069865;28;20028;-60
2024/01/19 09:16:58;;;;;;;110.50;14.63;;;5.50;97.90;;;;;;5086054;28;20044;-60
2024/01/19 09:19:24;;;;;;;111.55;14.43;;;5.50;98.10;;;;;;5063904;28;20073;-60
2024/01/19 09:21:50;;;;;;;142.02;18.27;;;5.50;98.10;;;;;;5081051;28;20708;-60
2024/01/19 09:24:16;;;;;;;114.25;15.00;;;5.50;98.10;;;;;;5066845;28;20045;-59
2024/01/19 09:26:42;;;;;;;153.80;20.20;;;5.50;97.80;;;;;;5074951;28;20056;-60
2024/01/19 09:29:10;;;;;;;153.05;19.73;;;5.50;97.80;;;;;;5083268;28;20035;-60
2024/01/19 09:31:46;;;;;;;344.23;31.08;;;5.50;98.00;;;;;;5069449;28;20119;-60
2024/01/19 09:34:11;;;;;;;116.72;18.42;;;5.50;98.00;;;;;;5065001;28;20079;-60
2024/01/19 09:36:40;;;;;;;110.15;17.38;;;5.50;97.90;;;;;;5085111;28;20036;-60
2024/01/19 09:39:06;;;;;;;153.88;20.23;;;5.60;98.00;;;;;;5075141;28;20476;-60
2024/01/19 09:41:49;;;;;;;157.10;17.40;;;5.50;98.00;;;;;;5085511;28;20025;-60
2024/01/19 09:44:17;;;;;;;147.90;17.52;;;5.50;98.00;;;;;;5049880;28;20025;-60
2024/01/19 09:46:52;;;;;;;135.10;16.98;;;5.60;98.10;;;;;;5064716;28;20122;-60
2024/01/19 09:49:37;;;;;;;128.25;18.58;;;5.60;98.00;;;;;;5094980;28;20031;-60
2024/01/19 09:52:25;;;;;;;119.13;17.90;;;5.50;97.80;;;;;;5090995;28;20033;-60
2024/01/19 09:54:51;;;;;;;120.45;15.10;;;5.60;97.80;;;;;;5058670;28;20085;-63
2024/01/19 09:57:19;;;;;;;125.43;16.77;;;5.60;97.80;;;;;;5087379;28;20036;-63
2024/01/19 09:59:44;;;;;;;164.23;18.02;;;5.60;97.60;;;;;;5088241;28;20031;-63
2024/01/19 10:02:10;;;;;;;114.38;17.75;;;5.60;97.50;;;;;;5072552;28;20028;-62
2024/01/19 10:04:35;;;;;;;101.55;14.00;;;5.60;97.30;;;;;;5085023;28;20029;-60
2024/01/19 10:07:01;;;;;;;95.28;14.88;;;5.60;97.10;;;;;;5073018;28;20037;-60
2024/01/19 10:09:27;;;;;;;98.18;12.55;;;5.60;97.00;;;;;;5075426;28;20440;-60
2024/01/19 10:11:53;;;;;;;123.25;15.52;;;5.50;96.70;;;;;;5072689;28;20871;-60
2024/01/19 10:14:19;;;;;;;101.07;13.88;;;5.60;96.60;;;;;;5085725;28;20017;-60
2024/01/19 10:16:47;;;;;;;173.88;19.20;;;5.60;96.60;;;;;;5063107;28;20025;-60
2024/01/19 10:19:13;;;;;;;142.00;17.83;;;5.60;96.80;;;;;;5065423;28;20035;-60
2024/01/19 10:21:39;;;;;;;87.70;12.75;;;5.60;96.60;;;;;;5068819;28;20020;-60
2024/01/19 10:24:14;;;;;;;104.40;14.40;;;5.60;96.50;;;;;;5087427;28;20477;-60
2024/01/19 10:26:42;;;;;;;133.32;16.80;;;5.60;96.40;;;;;;5049580;28;20036;-60
2024/01/19 10:29:14;;;;;;;101.43;12.80;;;5.60;96.10;;;;;;5084090;28;20032;-60
2024/01/19 10:31:41;;;;;;;114.03;17.25;;;5.60;96.10;;;;;;5075766;28;20056;-60
2024/01/19 10:34:18;;;;;;;96.95;14.23;;;5.60;95.90;;;;;;5068136;28;20112;-60
2024/01/19 10:36:44;;;;;;;123.30;15.18;;;5.60;95.90;;;;;;5068991;28;20037;-60
2024/01/19 10:39:29;;;;;;;111.57;15.50;;;5.60;95.90;;;;;;5072656;28;20032;-60
2024/01/19 10:42:05;;;;;;;78.20;12.68;;;5.70;96.10;;;;;;5052924;28;20112;-60
2024/01/19 10:44:30;;;;;;;86.13;12.85;;;5.60;96.00;;;;;;5069564;28;20028;-60
2024/01/19 10:46:56;;;;;;;81.60;11.52;;;5.60;95.90;;;;;;5089798;28;20041;-60
2024/01/19 10:49:22;;;;;;;74.15;11.73;;;5.70;95.70;;;;;;5076289;28;20038;-60
2024/01/19 10:51:47;;;;;;;85.88;11.85;;;5.60;95.40;;;;;;5076605;28;20039;-61
2024/01/19 10:54:20;;;;;;;76.00;12.65;;;5.70;95.40;;;;;;5089581;28;20306;-60
2024/01/19 10:56:46;;;;;;;60.00;11.23;;;5.70;95.30;;;;;;5074306;28;20050;-60
2024/01/19 10:59:13;;;;;;;77.85;11.15;;;5.70;95.20;;;;;;5079656;28;20029;-62
2024/01/19 11:01:39;;;;;;;67.45;9.93;;;5.70;95.10;;;;;;5097943;28;20101;-60
2024/01/19 11:04:08;;;;;;;73.80;11.20;;;5.70;94.90;;;;;;5063810;28;20428;-60
2024/01/19 11:06:36;;;;;;;92.75;10.02;;;5.70;94.80;;;;;;5094825;28;20048;-60
2024/01/19 11:09:08;;;;;;;58.38;10.07;;;5.70;94.80;;;;;;5087542;28;20028;-61
2024/01/19 11:11:39;;;;;;;46.33;8.57;;;5.70;94.70;;;;;;5074027;28;20109;-60
2024/01/19 11:14:06;;;;;;;45.78;9.25;;;5.70;94.70;;;;;;5077599;28;20050;-61
2024/01/19 11:16:36;;;;;;;65.85;9.05;;;5.70;94.50;;;;;;5072683;28;20056;-61
2024/01/19 11:19:01;;;;;;;49.25;7.78;;;5.70;94.40;;;;;;5076705;28;20040;-60
2024/01/19 11:21:27;;;;;;;50.28;7.30;;;5.70;94.40;;;;;;5087783;28;20086;-61
2024/01/19 11:23:52;;;;;;;59.70;10.05;;;5.70;94.40;;;;;;5081014;28;20027;-60
2024/01/19 11:26:34;;;;;;;41.35;8.05;;;5.70;94.30;;;;;;5089217;28;20055;-63
2024/01/19 11:29:02;;;;;;;39.55;7.05;;;5.70;94.30;;;;;;5086838;28;20032;-60
2024/01/19 11:31:30;;;;;;;45.28;8.05;;;5.70;94.10;;;;;;5082327;28;20059;-60
2024/01/19 11:33:57;;;;;;;54.67;8.23;;;5.60;94.00;;;;;;5054648;28;20032;-60
2024/01/19 11:36:41;;;;;;;43.40;6.53;;;5.60;93.90;;;;;;5050311;28;20847;-60
2024/01/19 11:39:13;;;;;;;37.50;5.80;;;5.60;93.90;;;;;;5096012;28;20031;-59
2024/01/19 11:41:40;;;;;;;36.72;7.00;;;5.60;93.80;;;;;;5077475;28;20032;-60
2024/01/19 11:44:06;;;;;;;38.28;5.72;;;5.60;93.60;;;;;;5095873;28;20058;-60
2024/01/19 11:46:50;;;;;;;48.78;6.28;;;5.60;93.60;;;;;;5069798;28;20045;-60
2024/01/19 11:49:35;;;;;;;35.30;5.30;;;5.60;93.60;;;;;;5095788;28;20024;-59
2024/01/19 11:52:01;;;;;;;44.30;7.40;;;5.60;93.40;;;;;;5092690;28;20183;-60
2024/01/19 11:54:28;;;;;;;53.22;6.35;;;5.60;93.40;;;;;;5073204;28;20033;-61
2024/01/19 11:57:23;;;;;;;48.30;6.80;;;5.50;93.50;;;;;;5086362;28;20028;-60
2024/01/19 11:59:49;;;;;;;53.22;7.60;;;5.50;93.40;;;;;;5071572;28;20039;-60
2024/01/19 12:02:21;;;;;;;59.28;7.00;;;5.50;93.30;;;;;;5104778;28;20028;-60
2024/01/19 12:04:50;;;;;;;45.95;6.05;;;5.60;93.30;;;;;;5104121;28;20114;-60
2024/01/19 12:07:24;;;;;;;32.58;5.20;;;5.50;93.00;;;;;;5083292;28;20043;-60
2024/01/19 12:10:10;;;;;;;37.85;5.53;;;5.50;93.00;;;;;;5085001;28;20024;-60
2024/01/19 12:12:36;;;;;;;36.83;6.85;;;5.40;92.70;;;;;;5081250;28;20134;-60
2024/01/19 12:15:06;;;;;;;32.97;6.00;;;5.40;92.40;;;;;;5098018;28;20032;-60
2024/01/19 12:17:32;;;;;;;36.38;5.63;;;5.40;92.40;;;;;;5101250;28;20024;-61
2024/01/19 12:19:57;;;;;;;44.70;5.72;;;5.40;92.20;;;;;;5083436;28;20028;-60
2024/01/19 12:22:24;;;;;;;43.00;6.20;;;5.40;92.10;;;;;;5053888;28;20123;-60
2024/01/19 12:24:49;;;;;;;44.05;6.32;;;5.40;92.20;;;;;;5074467;28;20094;-60
2024/01/19 12:27:19;;;;;;;43.22;6.43;;;5.40;92.10;;;;;;5098640;28;20032;-60
2024/01/19 12:29:45;;;;;;;33.85;6.00;;;5.40;92.00;;;;;;5092734;28;20046;-60
2024/01/19 12:32:14;;;;;;;32.72;5.28;;;5.40;92.10;;;;;;5098456;28;20024;-60
2024/01/19 12:34:40;;;;;;;48.25;6.25;;;5.40;92.10;;;;;;5076115;28;20024;-60
2024/01/19 12:37:05;;;;;;;42.88;6.38;;;5.40;91.90;;;;;;5077659;28;20029;-60
2024/01/19 12:39:31;;;;;;;63.60;7.50;;;5.50;92.10;;;;;;5064394;28;20468;-60
2024/01/19 12:42:05;;;;;;;51.85;6.90;;;5.50;91.90;;;;;;5096558;28;20171;-60